Time;durP1;ratioP1;P1;durP2;ratioP2;P2;SDS_P1;SDS_P2;PMS_P1;PMS_P2;Temp;Humidity;BMP_temperature;BMP_pressure;BME280_temperature;BME280_humidity;BME280_pressure;Samples;Min_cycle;Max_cycle;Signal;HPM_P1;HPM_P2
2023/09/25 00:00:53;;;;;;;4.38;2.13;;;;;;;;;;5053486;28;20475;-57
2023/09/25 00:03:19;;;;;;;2.85;1.70;;;;;;;;;;5053285;28;20120;-58
2023/09/25 00:05:46;;;;;;;4.75;1.50;;;;;;;;;;5053496;28;20035;-58
2023/09/25 00:08:12;;;;;;;2.72;1.80;;;;;;;;;;5053205;28;20029;-58
2023/09/25 00:10:40;;;;;;;4.38;2.45;;;;;;;;;;5052963;28;20116;-58
2023/09/25 00:13:06;;;;;;;2.03;1.23;;;;;;;;;;5053125;28;20032;-58
2023/09/25 00:15:32;;;;;;;3.78;1.92;;;;;;;;;;5053170;28;20378;-58
2023/09/25 00:17:58;;;;;;;2.92;1.85;;;;;;;;;;5052723;28;20025;-58
2023/09/25 00:20:24;;;;;;;2.80;1.70;;;;;;;;;;5053719;28;20056;-58
2023/09/25 00:22:51;;;;;;;3.55;2.25;;;;;;;;;;5053142;28;20051;-58
2023/09/25 00:25:20;;;;;;;3.33;1.73;;;;;;;;;;5052835;28;20029;-58
2023/09/25 00:27:46;;;;;;;3.55;1.90;;;;;;;;;;5053540;28;20082;-58
2023/09/25 00:30:13;;;;;;;5.60;2.05;;;;;;;;;;5053501;28;20025;-58
2023/09/25 00:32:39;;;;;;;2.60;1.75;;;;;;;;;;5053026;28;20025;-58
2023/09/25 00:35:07;;;;;;;3.28;1.83;;;;;;;;;;5053063;28;20141;-58
2023/09/25 00:37:34;;;;;;;4.65;2.45;;;;;;;;;;5053345;28;20373;-58
2023/09/25 00:40:07;;;;;;;3.28;2.03;;;;;;;;;;5053462;28;20032;-58
2023/09/25 00:42:32;;;;;;;2.58;1.80;;;;;;;;;;5053581;28;20033;-58
2023/09/25 00:44:58;;;;;;;2.70;1.95;;;;;;;;;;5053318;28;20032;-58
2023/09/25 00:47:27;;;;;;;3.92;2.08;;;;;;;;;;5054902;28;20036;-58
2023/09/25 00:49:54;;;;;;;5.18;2.50;;;;;;;;;;5057109;28;20029;-58
2023/09/25 00:52:20;;;;;;;2.88;1.92;;;;;;;;;;5056439;28;20082;-58
2023/09/25 00:54:46;;;;;;;3.97;2.30;;;;;;;;;;5056727;28;20344;-58
2023/09/25 00:57:12;;;;;;;3.15;2.00;;;;;;;;;;5056631;28;20086;-58
2023/09/25 00:59:40;;;;;;;3.50;2.35;;;;;;;;;;5056290;28;20075;-58
2023/09/25 01:02:07;;;;;;;3.45;1.92;;;;;;;;;;5056178;28;20036;-58
2023/09/25 01:04:33;;;;;;;3.45;1.60;;;;;;;;;;5056314;28;20033;-58
2023/09/25 01:07:00;;;;;;;3.10;2.28;;;;;;;;;;5055989;28;20313;-58
2023/09/25 01:09:26;;;;;;;2.97;2.03;;;;;;;;;;5056260;28;20033;-58
2023/09/25 01:11:52;;;;;;;3.47;2.00;;;;;;;;;;5055992;28;20036;-58
2023/09/25 01:14:18;;;;;;;2.92;1.60;;;;;;;;;;5056475;28;20024;-58
2023/09/25 01:16:44;;;;;;;3.38;2.22;;;;;;;;;;5055827;28;20044;-58
2023/09/25 01:19:10;;;;;;;3.28;1.73;;;;;;;;;;5056637;28;20359;-58
2023/09/25 01:21:36;;;;;;;3.30;1.80;;;;;;;;;;5056214;28;20037;-57
2023/09/25 01:24:02;;;;;;;2.20;1.40;;;;;;;;;;5056504;28;20033;-58
2023/09/25 01:26:28;;;;;;;3.08;2.10;;;;;;;;;;5056704;28;20033;-57
2023/09/25 01:28:54;;;;;;;2.65;1.65;;;;;;;;;;5056069;28;20104;-57
2023/09/25 01:31:21;;;;;;;3.83;1.95;;;;;;;;;;5055154;28;20056;-58
2023/09/25 01:33:47;;;;;;;3.08;1.80;;;;;;;;;;5055747;28;20099;-58
2023/09/25 01:36:13;;;;;;;3.13;1.52;;;;;;;;;;5056450;28;20049;-58
2023/09/25 01:38:39;;;;;;;3.38;2.03;;;;;;;;;;5055712;28;20117;-57
2023/09/25 01:41:05;;;;;;;1.98;1.20;;;;;;;;;;5056102;28;20029;-57
2023/09/25 01:43:31;;;;;;;2.33;1.63;;;;;;;;;;5056406;28;20423;-57
2023/09/25 01:45:57;;;;;;;3.33;1.85;;;;;;;;;;5055579;28;20021;-58
2023/09/25 01:48:24;;;;;;;3.60;1.60;;;;;;;;;;5055333;28;20411;-58
2023/09/25 01:50:50;;;;;;;2.47;1.45;;;;;;;;;;5056331;28;20025;-57
2023/09/25 01:53:16;;;;;;;2.80;1.92;;;;;;;;;;5055143;28;20159;-58
2023/09/25 01:55:42;;;;;;;2.75;1.88;;;;;;;;;;5055368;28;20072;-58
2023/09/25 01:58:08;;;;;;;2.75;1.55;;;;;;;;;;5054881;28;20114;-58
2023/09/25 02:00:35;;;;;;;4.85;2.25;;;;;;;;;;5056138;28;20025;-58
2023/09/25 02:03:01;;;;;;;2.90;2.03;;;;;;;;;;5055163;28;20043;-58
2023/09/25 02:05:27;;;;;;;4.40;2.30;;;;;;;;;;5056019;28;20029;-58
2023/09/25 02:07:53;;;;;;;3.50;1.98;;;;;;;;;;5055168;28;20032;-58
2023/09/25 02:10:19;;;;;;;2.90;1.63;;;;;;;;;;5055776;28;20025;-57
2023/09/25 02:12:45;;;;;;;2.92;1.77;;;;;;;;;;5055093;28;20414;-58
2023/09/25 02:15:11;;;;;;;2.90;2.13;;;;;;;;;;5055807;28;20032;-58
2023/09/25 02:17:37;;;;;;;3.10;1.88;;;;;;;;;;5054706;28;20418;-58
2023/09/25 02:20:20;;;;;;;3.03;1.58;;;;;;;;;;5055072;28;20029;-58
2023/09/25 02:22:51;;;;;;;2.90;1.45;;;;;;;;;;5055944;28;20033;-57
2023/09/25 02:25:17;;;;;;;2.55;1.83;;;;;;;;;;5055370;28;20029;-58
2023/09/25 02:27:43;;;;;;;2.55;1.73;;;;;;;;;;5055291;28;20029;-57
2023/09/25 02:30:10;;;;;;;2.63;1.85;;;;;;;;;;5055319;28;20063;-58
2023/09/25 02:32:37;;;;;;;2.50;1.70;;;;;;;;;;5055155;28;20112;-58
2023/09/25 02:35:03;;;;;;;3.80;2.22;;;;;;;;;;5055306;28;20051;-58
2023/09/25 02:37:30;;;;;;;2.33;1.73;;;;;;;;;;5054843;28;20029;-57
2023/09/25 02:39:56;;;;;;;3.83;1.98;;;;;;;;;;5055086;28;20422;-57
2023/09/25 02:42:22;;;;;;;2.83;1.58;;;;;;;;;;5054421;28;20060;-58
2023/09/25 02:44:48;;;;;;;2.83;1.58;;;;;;;;;;5054382;28;20025;-57
2023/09/25 02:47:14;;;;;;;3.40;2.42;;;;;;;;;;5054949;28;20031;-57
2023/09/25 02:49:40;;;;;;;3.15;2.08;;;;;;;;;;5054690;28;20025;-57
2023/09/25 02:52:06;;;;;;;3.95;1.85;;;;;;;;;;5054235;28;20118;-58
2023/09/25 02:54:32;;;;;;;2.30;1.55;;;;;;;;;;5054298;28;20171;-58
2023/09/25 02:56:57;;;;;;;7.00;2.30;;;;;;;;;;5054210;28;20362;-58
2023/09/25 02:59:23;;;;;;;3.80;2.10;;;;;;;;;;5054509;28;20035;-57
2023/09/25 03:01:49;;;;;;;3.40;2.13;;;;;;;;;;5054104;28;20108;-58
2023/09/25 03:04:15;;;;;;;6.40;1.92;;;;;;;;;;5054586;28;20116;-57
2023/09/25 03:06:41;;;;;;;2.85;1.73;;;;;;;;;;5054067;28;20520;-58
2023/09/25 03:09:07;;;;;;;3.17;1.60;;;;;;;;;;5053356;28;20033;-58
2023/09/25 03:11:33;;;;;;;2.17;1.48;;;;;;;;;;5053977;28;20040;-58
2023/09/25 03:13:59;;;;;;;2.70;1.83;;;;;;;;;;5053623;28;20040;-57
2023/09/25 03:16:25;;;;;;;4.80;2.22;;;;;;;;;;5054429;28;20060;-57
2023/09/25 03:18:51;;;;;;;3.08;1.73;;;;;;;;;;5053949;28;20025;-57
2023/09/25 03:21:17;;;;;;;4.50;1.95;;;;;;;;;;5053450;28;20498;-57
2023/09/25 03:23:44;;;;;;;4.18;1.65;;;;;;;;;;5053754;28;20040;-57
2023/09/25 03:26:16;;;;;;;3.67;2.30;;;;;;;;;;5053726;28;20025;-57
2023/09/25 03:28:43;;;;;;;2.42;1.58;;;;;;;;;;5053709;28;20171;-58
2023/09/25 03:31:09;;;;;;;2.40;1.25;;;;;;;;;;5054517;28;20021;-57
2023/09/25 03:33:36;;;;;;;2.40;1.60;;;;;;;;;;5053849;28;20025;-57
2023/09/25 03:36:03;;;;;;;3.15;1.75;;;;;;;;;;5053268;28;20479;-58
2023/09/25 03:38:29;;;;;;;5.00;2.20;;;;;;;;;;5053542;28;20032;-58
2023/09/25 03:40:55;;;;;;;2.15;1.50;;;;;;;;;;5054151;28;20048;-58
2023/09/25 03:43:24;;;;;;;4.88;1.95;;;;;;;;;;5053433;28;20091;-57
2023/09/25 03:45:50;;;;;;;2.60;1.67;;;;;;;;;;5053438;28;20021;-57
2023/09/25 03:48:16;;;;;;;3.20;1.92;;;;;;;;;;5053486;28;20037;-57
2023/09/25 03:50:42;;;;;;;3.75;2.38;;;;;;;;;;5053596;28;20029;-57
2023/09/25 03:53:08;;;;;;;2.75;1.73;;;;;;;;;;5053645;28;20025;-57
2023/09/25 03:55:34;;;;;;;2.58;1.40;;;;;;;;;;5053419;28;20029;-57
2023/09/25 03:58:00;;;;;;;3.58;1.83;;;;;;;;;;5053903;28;20024;-58
2023/09/25 04:00:26;;;;;;;4.55;2.15;;;;;;;;;;5053425;28;20031;-57
2023/09/25 04:02:53;;;;;;;2.42;1.58;;;;;;;;;;5053288;28;20037;-57
2023/09/25 04:05:19;;;;;;;2.75;1.95;;;;;;;;;;5053640;28;20131;-57
2023/09/25 04:07:45;;;;;;;3.80;2.20;;;;;;;;;;5053352;28;20120;-57
2023/09/25 04:10:11;;;;;;;3.95;1.60;;;;;;;;;;5053634;28;20487;-58
2023/09/25 04:12:37;;;;;;;2.92;1.90;;;;;;;;;;5053332;28;20367;-58
2023/09/25 04:15:14;;;;;;;3.75;2.10;;;;;;;;;;5053337;28;20432;-57
2023/09/25 04:17:43;;;;;;;4.10;2.15;;;;;;;;;;5053309;28;20025;-57
2023/09/25 04:20:15;;;;;;;2.72;1.45;;;;;;;;;;5053439;28;20025;-57
2023/09/25 04:22:41;;;;;;;3.30;2.15;;;;;;;;;;5057192;28;20033;-57
2023/09/25 04:25:09;;;;;;;3.55;2.00;;;;;;;;;;5057371;28;20040;-58
2023/09/25 04:27:38;;;;;;;4.22;1.92;;;;;;;;;;5057604;28;20029;-57
2023/09/25 04:30:04;;;;;;;3.88;1.38;;;;;;;;;;5057832;28;20287;-58
2023/09/25 04:32:30;;;;;;;3.53;2.00;;;;;;;;;;5057170;28;20037;-57
2023/09/25 04:34:56;;;;;;;3.53;1.80;;;;;;;;;;5057036;28;20479;-56
2023/09/25 04:37:23;;;;;;;4.13;2.10;;;;;;;;;;5057131;28;20025;-57
2023/09/25 04:39:49;;;;;;;3.17;1.80;;;;;;;;;;5057744;28;20021;-57
2023/09/25 04:42:15;;;;;;;2.17;1.33;;;;;;;;;;5056703;28;20115;-57
2023/09/25 04:44:41;;;;;;;3.20;2.15;;;;;;;;;;5056782;28;20052;-57
2023/09/25 04:47:07;;;;;;;2.42;1.70;;;;;;;;;;5056737;28;20471;-58
2023/09/25 04:49:34;;;;;;;4.18;1.60;;;;;;;;;;5057316;28;20017;-57
2023/09/25 04:52:00;;;;;;;3.33;2.15;;;;;;;;;;5056602;28;20443;-58
2023/09/25 04:54:26;;;;;;;3.17;2.00;;;;;;;;;;5056598;28;20112;-58
2023/09/25 04:56:52;;;;;;;4.63;2.10;;;;;;;;;;5057048;28;20513;-57
2023/09/25 04:59:18;;;;;;;2.85;2.00;;;;;;;;;;5056976;28;20029;-58
2023/09/25 05:01:44;;;;;;;2.75;1.60;;;;;;;;;;5056237;28;20428;-57
2023/09/25 05:04:11;;;;;;;3.00;1.85;;;;;;;;;;5057176;28;20040;-58
2023/09/25 05:06:37;;;;;;;4.38;1.58;;;;;;;;;;5056973;28;20430;-57
2023/09/25 05:09:03;;;;;;;3.25;2.28;;;;;;;;;;5056237;28;20053;-57
2023/09/25 05:11:29;;;;;;;3.40;1.73;;;;;;;;;;5055346;28;20029;-57
2023/09/25 05:13:55;;;;;;;4.63;2.65;;;;;;;;;;5056206;28;20025;-57
2023/09/25 05:16:21;;;;;;;3.13;2.03;;;;;;;;;;5056127;28;20073;-57
2023/09/25 05:18:47;;;;;;;3.33;1.98;;;;;;;;;;5056905;28;20033;-57
2023/09/25 05:21:13;;;;;;;3.28;1.98;;;;;;;;;;5056586;28;20104;-57
2023/09/25 05:23:39;;;;;;;2.13;1.40;;;;;;;;;;5055761;28;20427;-57
2023/09/25 05:26:05;;;;;;;4.30;1.70;;;;;;;;;;5056508;28;20110;-58
2023/09/25 05:28:31;;;;;;;2.70;1.77;;;;;;;;;;5056762;28;20455;-57
2023/09/25 05:30:58;;;;;;;3.83;1.58;;;;;;;;;;5056551;28;20025;-57
2023/09/25 05:33:24;;;;;;;3.35;2.35;;;;;;;;;;5055542;28;20082;-57
2023/09/25 05:35:50;;;;;;;2.28;1.58;;;;;;;;;;5056012;28;20052;-57
2023/09/25 05:38:16;;;;;;;2.80;1.55;;;;;;;;;;5055910;28;20087;-58
2023/09/25 05:40:42;;;;;;;2.90;1.50;;;;;;;;;;5056299;28;20453;-58
2023/09/25 05:43:08;;;;;;;2.50;1.80;;;;;;;;;;5056157;28;20061;-57
2023/09/25 05:45:34;;;;;;;3.72;2.28;;;;;;;;;;5055633;28;20057;-57
2023/09/25 05:48:00;;;;;;;3.30;1.55;;;;;;;;;;5055576;28;20044;-58
2023/09/25 05:50:26;;;;;;;3.17;2.13;;;;;;;;;;5055600;28;20371;-58
2023/09/25 05:52:54;;;;;;;2.47;1.33;;;;;;;;;;5055896;28;20439;-57
2023/09/25 05:55:21;;;;;;;3.17;1.75;;;;;;;;;;5055677;28;20477;-58
2023/09/25 05:57:46;;;;;;;4.65;1.83;;;;;;;;;;5055585;28;20121;-57
2023/09/25 06:00:13;;;;;;;2.38;1.42;;;;;;;;;;5055900;28;20059;-57
2023/09/25 06:02:39;;;;;;;5.93;1.98;;;;;;;;;;5055791;28;20370;-57
2023/09/25 06:05:06;;;;;;;3.10;2.17;;;;;;;;;;5055600;28;20033;-58
2023/09/25 06:07:32;;;;;;;2.90;1.77;;;;;;;;;;5055203;28;20107;-57
2023/09/25 06:09:58;;;;;;;3.58;1.85;;;;;;;;;;5056001;28;20115;-58
2023/09/25 06:12:24;;;;;;;2.97;1.92;;;;;;;;;;5055386;28;20029;-58
2023/09/25 06:14:50;;;;;;;3.15;2.25;;;;;;;;;;5055593;28;20076;-58
2023/09/25 06:17:16;;;;;;;4.10;1.80;;;;;;;;;;5055200;28;20086;-58
2023/09/25 06:19:42;;;;;;;3.10;1.77;;;;;;;;;;5055058;28;20037;-57
2023/09/25 06:22:08;;;;;;;5.22;2.13;;;;;;;;;;5054654;28;20036;-57
2023/09/25 06:24:34;;;;;;;3.10;1.60;;;;;;;;;;5054943;28;20091;-57
2023/09/25 06:27:00;;;;;;;2.72;1.67;;;;;;;;;;5055460;28;20104;-58
2023/09/25 06:29:26;;;;;;;3.03;1.98;;;;;;;;;;5055218;28;20116;-58
2023/09/25 06:31:52;;;;;;;3.25;1.85;;;;;;;;;;5054679;28;20483;-58
2023/09/25 06:34:18;;;;;;;3.25;2.08;;;;;;;;;;5054294;28;20032;-58
2023/09/25 06:36:44;;;;;;;3.97;1.83;;;;;;;;;;5054936;28;20447;-57
2023/09/25 06:39:10;;;;;;;3.55;1.65;;;;;;;;;;5055365;28;20470;-57
2023/09/25 06:41:37;;;;;;;3.22;1.90;;;;;;;;;;5054955;28;20052;-58
2023/09/25 06:44:04;;;;;;;3.78;1.98;;;;;;;;;;5053949;28;20433;-57
2023/09/25 06:46:30;;;;;;;3.03;1.90;;;;;;;;;;5055056;28;20439;-57
2023/09/25 06:48:57;;;;;;;2.95;2.10;;;;;;;;;;5054913;28;20042;-57
2023/09/25 06:51:23;;;;;;;3.45;2.30;;;;;;;;;;5054861;28;20036;-58
2023/09/25 06:53:49;;;;;;;2.70;1.80;;;;;;;;;;5054186;28;20021;-57
2023/09/25 06:56:15;;;;;;;3.72;1.63;;;;;;;;;;5054791;28;20036;-58
2023/09/25 06:58:42;;;;;;;4.05;2.25;;;;;;;;;;5055029;28;20031;-58
2023/09/25 07:01:08;;;;;;;3.45;1.70;;;;;;;;;;5054457;28;20061;-57
2023/09/25 07:03:34;;;;;;;3.50;1.90;;;;;;;;;;5054230;28;20616;-57
2023/09/25 07:06:00;;;;;;;3.53;1.58;;;;;;;;;;5054175;28;20035;-58
2023/09/25 07:08:27;;;;;;;3.10;2.13;;;;;;;;;;5054122;28;20033;-58
2023/09/25 07:10:53;;;;;;;2.78;1.60;;;;;;;;;;5054366;28;20060;-58
2023/09/25 07:13:20;;;;;;;3.47;1.98;;;;;;;;;;5053703;28;20044;-58
2023/09/25 07:15:47;;;;;;;4.07;2.33;;;;;;;;;;5054207;28;20025;-58
2023/09/25 07:18:13;;;;;;;3.28;1.52;;;;;;;;;;5053799;28;20439;-58
2023/09/25 07:20:39;;;;;;;2.85;1.92;;;;;;;;;;5054768;28;20029;-58
2023/09/25 07:23:05;;;;;;;3.08;1.80;;;;;;;;;;5053756;28;20065;-57
2023/09/25 07:25:31;;;;;;;2.97;1.85;;;;;;;;;;5053857;28;20126;-58
2023/09/25 07:27:57;;;;;;;4.90;2.13;;;;;;;;;;5053809;28;20142;-58
2023/09/25 07:30:23;;;;;;;3.00;1.75;;;;;;;;;;5054264;28;20028;-57
2023/09/25 07:32:49;;;;;;;3.63;1.77;;;;;;;;;;5053727;28;20352;-57
2023/09/25 07:35:15;;;;;;;3.20;1.92;;;;;;;;;;5054362;28;20140;-58
2023/09/25 07:37:42;;;;;;;5.53;2.13;;;;;;;;;;5053673;28;20060;-58
2023/09/25 07:40:09;;;;;;;3.03;1.67;;;;;;;;;;5054466;28;20024;-58
2023/09/25 07:42:35;;;;;;;3.92;2.30;;;;;;;;;;5053563;28;20373;-58
2023/09/25 07:45:05;;;;;;;5.47;2.90;;;;;;;;;;5053318;28;20029;-58
2023/09/25 07:47:31;;;;;;;5.70;2.35;;;;;;;;;;5053973;28;20029;-58
2023/09/25 07:49:57;;;;;;;3.92;2.83;;;;;;;;;;5054055;28;20056;-58
2023/09/25 07:52:24;;;;;;;4.22;2.33;;;;;;;;;;5053460;28;20400;-58
2023/09/25 07:54:51;;;;;;;2.92;1.83;;;;;;;;;;5054138;28;20421;-58
2023/09/25 07:57:19;;;;;;;3.03;1.60;;;;;;;;;;5053783;28;20021;-58
2023/09/25 07:59:45;;;;;;;4.18;2.60;;;;;;;;;;5054583;28;20108;-58
2023/09/25 08:02:17;;;;;;;3.63;2.15;;;;;;;;;;5054114;28;20021;-58
2023/09/25 08:04:44;;;;;;;3.55;2.30;;;;;;;;;;5053438;28;20040;-58
2023/09/25 08:07:10;;;;;;;2.38;1.70;;;;;;;;;;5053879;28;20032;-58
2023/09/25 08:09:36;;;;;;;2.60;1.77;;;;;;;;;;5053373;28;20107;-58
2023/09/25 08:12:02;;;;;;;2.90;1.80;;;;;;;;;;5053335;28;20029;-58
2023/09/25 08:14:28;;;;;;;3.33;2.25;;;;;;;;;;5053780;28;20032;-58
2023/09/25 08:16:53;;;;;;;3.38;1.90;;;;;;;;;;5053012;28;20025;-58
2023/09/25 08:19:22;;;;;;;3.85;2.17;;;;;;;;;;5053781;28;20032;-58
2023/09/25 08:21:48;;;;;;;5.47;2.60;;;;;;;;;;5053182;28;20033;-58
2023/09/25 08:24:14;;;;;;;5.78;3.20;;;;;;;;;;5053739;28;20035;-58
2023/09/25 08:26:40;;;;;;;4.35;2.28;;;;;;;;;;5053488;28;20096;-58
2023/09/25 08:29:07;;;;;;;4.20;2.85;;;;;;;;;;5053970;28;20511;-58
2023/09/25 08:31:34;;;;;;;2.85;2.05;;;;;;;;;;5053363;28;20116;-58
2023/09/25 08:34:00;;;;;;;3.65;2.20;;;;;;;;;;5053101;28;20029;-58
2023/09/25 08:36:26;;;;;;;2.72;1.77;;;;;;;;;;5053942;28;20367;-58
2023/09/25 08:38:52;;;;;;;3.83;2.08;;;;;;;;;;5053067;28;20430;-58
2023/09/25 08:41:19;;;;;;;3.53;2.20;;;;;;;;;;5053565;28;20029;-58
2023/09/25 08:43:45;;;;;;;3.20;2.10;;;;;;;;;;5053524;28;20412;-58
2023/09/25 08:46:12;;;;;;;2.85;1.70;;;;;;;;;;5052678;28;20029;-58
2023/09/25 08:48:38;;;;;;;3.22;2.00;;;;;;;;;;5052951;28;20025;-58
2023/09/25 08:51:06;;;;;;;4.05;2.33;;;;;;;;;;5053358;28;20029;-58
2023/09/25 08:53:33;;;;;;;6.97;2.20;;;;;;;;;;5052552;28;20451;-58
2023/09/25 08:55:59;;;;;;;4.30;2.47;;;;;;;;;;5053458;28;20033;-58
2023/09/25 08:58:26;;;;;;;4.72;2.58;;;;;;;;;;5052954;28;20031;-58
2023/09/25 09:00:53;;;;;;;4.20;2.47;;;;;;;;;;5052989;28;20021;-58
2023/09/25 09:03:20;;;;;;;4.43;2.05;;;;;;;;;;5052828;28;20021;-58
2023/09/25 09:05:47;;;;;;;3.97;3.05;;;;;;;;;;5052797;28;20119;-58
2023/09/25 09:08:16;;;;;;;3.97;2.25;;;;;;;;;;5055333;28;20371;-58
2023/09/25 09:10:41;;;;;;;2.97;2.08;;;;;;;;;;5056328;28;20025;-58
2023/09/25 09:13:10;;;;;;;6.82;2.30;;;;;;;;;;5056549;28;20032;-58
2023/09/25 09:15:37;;;;;;;4.25;2.17;;;;;;;;;;5056317;28;20463;-58
2023/09/25 09:18:23;;;;;;;5.90;3.05;;;;;;;;;;5056799;28;20032;-58
2023/09/25 09:20:49;;;;;;;3.63;1.90;;;;;;;;;;5056753;28;20355;-58
2023/09/25 09:23:15;;;;;;;4.07;1.70;;;;;;;;;;5056874;28;20427;-58
2023/09/25 09:25:44;;;;;;;3.70;2.40;;;;;;;;;;5056141;28;20065;-58
2023/09/25 09:28:10;;;;;;;5.40;2.17;;;;;;;;;;5056012;28;20154;-58
2023/09/25 09:30:37;;;;;;;4.15;2.30;;;;;;;;;;5056660;28;20052;-58
2023/09/25 09:33:04;;;;;;;4.85;2.55;;;;;;;;;;5055941;28;20462;-58
2023/09/25 09:35:30;;;;;;;3.58;1.98;;;;;;;;;;5055645;28;20056;-58
2023/09/25 09:37:57;;;;;;;3.55;2.22;;;;;;;;;;5056241;28;20017;-58
2023/09/25 09:40:24;;;;;;;4.03;2.10;;;;;;;;;;5056082;28;20123;-58
2023/09/25 09:42:50;;;;;;;4.22;2.38;;;;;;;;;;5055377;28;20532;-58
2023/09/25 09:45:16;;;;;;;4.05;2.33;;;;;;;;;;5056210;28;20032;-58
2023/09/25 09:47:44;;;;;;;3.67;2.50;;;;;;;;;;5055699;28;20033;-58
2023/09/25 09:50:13;;;;;;;4.95;2.13;;;;;;;;;;5056477;28;20047;-58
2023/09/25 09:52:40;;;;;;;2.83;1.73;;;;;;;;;;5055167;28;20491;-59
2023/09/25 09:55:11;;;;;;;1.90;1.33;;;;;;;;;;5055552;28;20032;-58
2023/09/25 09:57:37;;;;;;;2.83;2.05;;;;;;;;;;5055800;28;20455;-58
2023/09/25 10:00:05;;;;;;;2.58;1.77;;;;;;;;;;5055218;28;20035;-58
2023/09/25 10:02:31;;;;;;;2.72;1.70;;;;;;;;;;5055307;28;20458;-58
2023/09/25 10:04:58;;;;;;;4.28;1.98;;;;;;;;;;5055375;28;20025;-58
2023/09/25 10:07:24;;;;;;;2.20;1.17;;;;;;;;;;5055327;28;20033;-58
2023/09/25 10:09:57;;;;;;;3.83;1.70;;;;;;;;;;5055854;28;20028;-58
2023/09/25 10:12:48;;;;;;;2.97;1.45;;;;;;;;;;5055208;28;20029;-58
2023/09/25 10:15:17;;;;;;;2.70;1.70;;;;;;;;;;5055751;28;20426;-58
2023/09/25 10:17:45;;;;;;;1.75;1.13;;;;;;;;;;5055033;28;20031;-58
2023/09/25 10:20:30;;;;;;;2.30;1.35;;;;;;;;;;5055293;28;20128;-58
2023/09/25 10:23:03;;;;;;;3.65;1.77;;;;;;;;;;5055013;28;20387;-58
2023/09/25 10:25:31;;;;;;;2.60;1.52;;;;;;;;;;5055467;28;20033;-58
2023/09/25 10:27:57;;;;;;;3.35;1.70;;;;;;;;;;5054905;28;20075;-58
2023/09/25 10:30:23;;;;;;;2.92;1.63;;;;;;;;;;5055490;28;20029;-58
2023/09/25 10:32:54;;;;;;;4.35;1.88;;;;;;;;;;5054804;28;20033;-58
2023/09/25 10:35:36;;;;;;;4.20;1.95;;;;;;;;;;5054790;28;20055;-58
2023/09/25 10:38:09;;;;;;;2.03;1.15;;;;;;;;;;5055189;28;20375;-58
2023/09/25 10:40:36;;;;;;;4.15;1.90;;;;;;;;;;5055222;28;20404;-58
2023/09/25 10:43:02;;;;;;;3.22;1.98;;;;;;;;;;5054185;28;20025;-58
2023/09/25 10:45:28;;;;;;;5.68;2.13;;;;;;;;;;5054277;28;20029;-58
2023/09/25 10:47:54;;;;;;;2.85;1.70;;;;;;;;;;5054498;28;20047;-58
2023/09/25 10:50:20;;;;;;;2.80;1.95;;;;;;;;;;5054803;28;20094;-58
2023/09/25 10:52:46;;;;;;;2.75;1.88;;;;;;;;;;5054822;28;20021;-58
2023/09/25 10:55:12;;;;;;;2.83;1.77;;;;;;;;;;5054416;28;20025;-58
2023/09/25 10:57:39;;;;;;;2.83;1.73;;;;;;;;;;5053937;28;20472;-58
2023/09/25 11:00:11;;;;;;;3.97;1.88;;;;;;;;;;5054542;28;20021;-58
2023/09/25 11:02:36;;;;;;;2.45;1.60;;;;;;;;;;5054444;28;20033;-58
2023/09/25 11:05:03;;;;;;;2.08;1.45;;;;;;;;;;5054795;28;20123;-58
2023/09/25 11:07:29;;;;;;;4.57;2.15;;;;;;;;;;5054146;28;20025;-58
2023/09/25 11:09:56;;;;;;;4.07;1.85;;;;;;;;;;5054749;28;20025;-58
2023/09/25 11:12:22;;;;;;;2.38;1.33;;;;;;;;;;5054572;28;20067;-58
2023/09/25 11:14:48;;;;;;;3.35;1.95;;;;;;;;;;5054008;28;20033;-58
2023/09/25 11:17:14;;;;;;;1.90;1.23;;;;;;;;;;5054505;28;20029;-58
2023/09/25 11:19:46;;;;;;;5.07;1.90;;;;;;;;;;5054528;28;20028;-58
2023/09/25 11:22:12;;;;;;;2.22;1.30;;;;;;;;;;5054032;28;20025;-58
2023/09/25 11:24:38;;;;;;;2.70;1.58;;;;;;;;;;5053887;28;20109;-58
2023/09/25 11:27:08;;;;;;;2.33;1.60;;;;;;;;;;5053859;28;20369;-58
2023/09/25 11:29:37;;;;;;;2.85;1.55;;;;;;;;;;5053613;28;20463;-59
2023/09/25 11:32:03;;;;;;;3.50;1.65;;;;;;;;;;5053391;28;20158;-58
2023/09/25 11:34:29;;;;;;;5.40;2.10;;;;;;;;;;5053949;28;20032;-58
2023/09/25 11:36:58;;;;;;;3.40;1.27;;;;;;;;;;5054022;28;20028;-58
2023/09/25 11:39:24;;;;;;;3.80;1.85;;;;;;;;;;5053894;28;20025;-58
2023/09/25 11:41:51;;;;;;;6.22;1.77;;;;;;;;;;5054375;28;20033;-58
2023/09/25 11:44:17;;;;;;;2.35;1.63;;;;;;;;;;5054143;28;20103;-59
2023/09/25 11:46:43;;;;;;;2.95;1.58;;;;;;;;;;5053120;28;20091;-58
2023/09/25 11:49:09;;;;;;;3.03;1.63;;;;;;;;;;5054433;28;20025;-58
2023/09/25 11:51:35;;;;;;;3.63;1.70;;;;;;;;;;5053777;28;20356;-58
2023/09/25 11:54:01;;;;;;;4.25;1.52;;;;;;;;;;5053474;28;20025;-58
2023/09/25 11:56:27;;;;;;;3.97;1.48;;;;;;;;;;5053535;28;20032;-58
2023/09/25 11:58:53;;;;;;;3.42;1.60;;;;;;;;;;5053520;28;20137;-58
2023/09/25 12:01:19;;;;;;;2.17;1.40;;;;;;;;;;5053994;28;20404;-58
2023/09/25 12:03:45;;;;;;;2.28;1.23;;;;;;;;;;5053435;28;20063;-58
2023/09/25 12:06:11;;;;;;;2.33;1.48;;;;;;;;;;5053939;28;20029;-58
2023/09/25 12:08:38;;;;;;;2.40;1.30;;;;;;;;;;5053603;28;20025;-58
2023/09/25 12:11:04;;;;;;;3.28;1.27;;;;;;;;;;5053936;28;20028;-58
2023/09/25 12:13:30;;;;;;;2.20;1.50;;;;;;;;;;5053286;28;20066;-58
2023/09/25 12:15:56;;;;;;;2.63;1.77;;;;;;;;;;5053824;28;20025;-58
2023/09/25 12:18:23;;;;;;;3.60;1.52;;;;;;;;;;5053227;28;20104;-58
2023/09/25 12:20:49;;;;;;;2.88;1.10;;;;;;;;;;5053488;28;20021;-58
2023/09/25 12:23:16;;;;;;;2.70;1.50;;;;;;;;;;5053618;28;20025;-58
2023/09/25 12:25:42;;;;;;;4.13;1.50;;;;;;;;;;5053705;28;20044;-58
2023/09/25 12:28:08;;;;;;;2.30;1.17;;;;;;;;;;5053626;28;20435;-58
2023/09/25 12:30:35;;;;;;;3.20;1.40;;;;;;;;;;5053668;28;20079;-58
2023/09/25 12:33:01;;;;;;;2.47;1.48;;;;;;;;;;5053849;28;20024;-58
2023/09/25 12:35:27;;;;;;;2.45;1.48;;;;;;;;;;5053296;28;20102;-58
2023/09/25 12:37:55;;;;;;;2.80;1.60;;;;;;;;;;5053553;28;20025;-58
2023/09/25 12:40:21;;;;;;;4.03;1.23;;;;;;;;;;5053606;28;20045;-58
2023/09/25 12:42:47;;;;;;;2.30;1.23;;;;;;;;;;5055678;28;20455;-58
2023/09/25 12:45:13;;;;;;;2.85;1.17;;;;;;;;;;5057256;28;20109;-59
2023/09/25 12:47:40;;;;;;;3.30;1.63;;;;;;;;;;5056806;28;20432;-58
2023/09/25 12:50:06;;;;;;;2.05;1.17;;;;;;;;;;5057552;28;20108;-58
2023/09/25 12:52:32;;;;;;;2.92;1.70;;;;;;;;;;5056899;28;20060;-58
2023/09/25 12:55:00;;;;;;;2.67;1.20;;;;;;;;;;5056242;28;20017;-58
2023/09/25 12:57:26;;;;;;;2.15;1.27;;;;;;;;;;5057123;28;20017;-58
2023/09/25 12:59:52;;;;;;;2.20;1.10;;;;;;;;;;5057137;28;20021;-58
2023/09/25 13:02:18;;;;;;;2.58;1.33;;;;;;;;;;5056597;28;20078;-59
2023/09/25 13:04:44;;;;;;;1.80;0.95;;;;;;;;;;5056491;28;20040;-59
2023/09/25 13:07:10;;;;;;;3.40;1.08;;;;;;;;;;5056341;28;20025;-59
2023/09/25 13:09:36;;;;;;;2.13;1.23;;;;;;;;;;5057208;28;20025;-58
2023/09/25 13:12:02;;;;;;;2.92;1.70;;;;;;;;;;5056833;28;20017;-58
2023/09/25 13:14:28;;;;;;;4.28;1.02;;;;;;;;;;5056558;28;20028;-58
2023/09/25 13:16:55;;;;;;;2.50;1.25;;;;;;;;;;5056995;28;20016;-59
2023/09/25 13:19:21;;;;;;;2.33;1.40;;;;;;;;;;5057064;28;20033;-58
2023/09/25 13:21:47;;;;;;;3.90;1.67;;;;;;;;;;5056038;28;20486;-59
2023/09/25 13:24:13;;;;;;;2.47;1.33;;;;;;;;;;5056524;28;20025;-59
2023/09/25 13:26:39;;;;;;;5.43;1.52;;;;;;;;;;5056034;28;20024;-58
2023/09/25 13:29:05;;;;;;;2.85;1.40;;;;;;;;;;5055786;28;20021;-58
2023/09/25 13:31:32;;;;;;;2.17;1.13;;;;;;;;;;5055984;28;20024;-59
2023/09/25 13:33:59;;;;;;;3.22;1.08;;;;;;;;;;5056402;28;20029;-59
2023/09/25 13:36:25;;;;;;;2.67;1.67;;;;;;;;;;5056750;28;20057;-59
2023/09/25 13:38:53;;;;;;;5.28;1.42;;;;;;;;;;5055805;28;20104;-58
2023/09/25 13:41:19;;;;;;;4.05;1.52;;;;;;;;;;5056375;28;20418;-58
2023/09/25 13:43:45;;;;;;;2.38;1.30;;;;;;;;;;5056073;28;20029;-59
2023/09/25 13:46:11;;;;;;;2.22;1.13;;;;;;;;;;5056206;28;20021;-59
2023/09/25 13:48:37;;;;;;;2.15;1.23;;;;;;;;;;5055670;28;20025;-59
2023/09/25 13:51:06;;;;;;;1.88;1.10;;;;;;;;;;5056187;28;20116;-59
2023/09/25 13:53:34;;;;;;;5.20;1.13;;;;;;;;;;5055026;28;20451;-59
2023/09/25 13:56:01;;;;;;;2.35;0.90;;;;;;;;;;5055595;28;20367;-59
2023/09/25 13:58:27;;;;;;;2.60;1.23;;;;;;;;;;5055475;28;20017;-59
2023/09/25 14:00:54;;;;;;;2.35;1.10;;;;;;;;;;5055994;28;20507;-59
2023/09/25 14:03:20;;;;;;;2.08;1.20;;;;;;;;;;5055831;28;20025;-58
2023/09/25 14:05:46;;;;;;;1.83;1.08;;;;;;;;;;5055372;28;20072;-59
2023/09/25 14:08:12;;;;;;;2.35;1.05;;;;;;;;;;5055319;28;20468;-59
2023/09/25 14:10:38;;;;;;;3.78;1.50;;;;;;;;;;5055339;28;20451;-59
2023/09/25 14:13:08;;;;;;;1.75;0.93;;;;;;;;;;5055171;28;20378;-59
2023/09/25 14:15:34;;;;;;;1.55;0.98;;;;;;;;;;5055156;28;20159;-59
2023/09/25 14:18:00;;;;;;;2.40;1.40;;;;;;;;;;5054870;28;20025;-59
2023/09/25 14:20:26;;;;;;;3.20;1.40;;;;;;;;;;5055335;28;20118;-59
2023/09/25 14:22:52;;;;;;;2.05;0.95;;;;;;;;;;5054981;28;20035;-59
2023/09/25 14:25:18;;;;;;;4.63;1.35;;;;;;;;;;5054959;28;20115;-59
2023/09/25 14:27:44;;;;;;;1.75;1.05;;;;;;;;;;5054839;28;20118;-59
2023/09/25 14:30:12;;;;;;;1.85;1.17;;;;;;;;;;5055728;28;20386;-59
2023/09/25 14:32:38;;;;;;;2.35;1.45;;;;;;;;;;5054810;28;20033;-59
2023/09/25 14:35:04;;;;;;;1.38;0.75;;;;;;;;;;5054524;28;20064;-59
2023/09/25 14:37:32;;;;;;;1.80;1.10;;;;;;;;;;5054785;28;20079;-59
2023/09/25 14:39:59;;;;;;;2.42;1.08;;;;;;;;;;5055041;28;20025;-59